sensor_id;sensor_type;location;lat;lon;timestamp;temperature;humidity
69084;SHT31;56185;48.526;9.044;2023-02-26T00:00:04;1.81;67.33
69084;SHT31;56185;48.526;9.044;2023-02-26T00:02:29;1.74;67.50
69084;SHT31;56185;48.526;9.044;2023-02-26T00:04:54;1.81;67.27
69084;SHT31;56185;48.526;9.044;2023-02-26T00:07:19;1.75;68.54
69084;SHT31;56185;48.526;9.044;2023-02-26T00:09:45;1.69;69.03
69084;SHT31;56185;48.526;9.044;2023-02-26T00:12:13;1.82;68.29
69084;SHT31;56185;48.526;9.044;2023-02-26T00:14:39;1.83;70.46
69084;SHT31;56185;48.526;9.044;2023-02-26T00:17:18;1.92;70.41
69084;SHT31;56185;48.526;9.044;2023-02-26T00:19:46;2.01;68.85
69084;SHT31;56185;48.526;9.044;2023-02-26T00:22:12;1.59;69.07
69084;SHT31;56185;48.526;9.044;2023-02-26T00:24:37;1.61;71.24
69084;SHT31;56185;48.526;9.044;2023-02-26T00:27:02;1.69;70.89
69084;SHT31;56185;48.526;9.044;2023-02-26T00:29:28;1.72;71.06
69084;SHT31;56185;48.526;9.044;2023-02-26T00:31:53;1.71;69.50
69084;SHT31;56185;48.526;9.044;2023-02-26T00:34:19;1.68;72.22
69084;SHT31;56185;48.526;9.044;2023-02-26T00:42:08;1.64;70.62
69084;SHT31;56185;48.526;9.044;2023-02-26T00:44:34;1.65;68.81
69084;SHT31;56185;48.526;9.044;2023-02-26T00:50:15;1.64;69.77
69084;SHT31;56185;48.526;9.044;2023-02-26T00:53:06;1.46;68.93
69084;SHT31;56185;48.526;9.044;2023-02-26T00:55:35;1.46;69.39
69084;SHT31;56185;48.526;9.044;2023-02-26T00:58:01;1.36;71.32
69084;SHT31;56185;48.526;9.044;2023-02-26T01:00:26;1.58;67.62
69084;SHT31;56185;48.526;9.044;2023-02-26T01:02:52;1.41;69.34
69084;SHT31;56185;48.526;9.044;2023-02-26T01:05:17;1.40;71.19
69084;SHT31;56185;48.526;9.044;2023-02-26T01:10:28;1.16;71.67
69084;SHT31;56185;48.526;9.044;2023-02-26T01:12:54;1.20;72.44
69084;SHT31;56185;48.526;9.044;2023-02-26T01:15:20;1.26;72.36
69084;SHT31;56185;48.526;9.044;2023-02-26T01:17:50;1.19;72.00
69084;SHT31;56185;48.526;9.044;2023-02-26T01:20:23;1.28;72.44
69084;SHT31;56185;48.526;9.044;2023-02-26T01:22:56;1.37;71.33
69084;SHT31;56185;48.526;9.044;2023-02-26T01:25:35;1.34;69.76
69084;SHT31;56185;48.526;9.044;2023-02-26T01:28:02;1.27;69.46
69084;SHT31;56185;48.526;9.044;2023-02-26T01:30:28;1.23;71.77
69084;SHT31;56185;48.526;9.044;2023-02-26T01:35:47;1.06;71.19
69084;SHT31;56185;48.526;9.044;2023-02-26T01:41:15;1.26;70.49
69084;SHT31;56185;48.526;9.044;2023-02-26T01:49:14;1.17;70.24
69084;SHT31;56185;48.526;9.044;2023-02-26T01:51:48;1.31;69.23
69084;SHT31;56185;48.526;9.044;2023-02-26T01:54:16;1.16;70.00
69084;SHT31;56185;48.526;9.044;2023-02-26T01:56:43;1.19;68.76
69084;SHT31;56185;48.526;9.044;2023-02-26T01:59:13;1.13;69.15
69084;SHT31;56185;48.526;9.044;2023-02-26T02:01:39;1.20;69.54
69084;SHT31;56185;48.526;9.044;2023-02-26T02:04:06;1.17;69.27
69084;SHT31;56185;48.526;9.044;2023-02-26T02:06:34;1.19;68.75
69084;SHT31;56185;48.526;9.044;2023-02-26T02:09:01;1.04;69.03
69084;SHT31;56185;48.526;9.044;2023-02-26T02:11:27;1.12;69.02
69084;SHT31;56185;48.526;9.044;2023-02-26T02:13:59;1.09;69.96
69084;SHT31;56185;48.526;9.044;2023-02-26T02:22:39;1.04;68.78
69084;SHT31;56185;48.526;9.044;2023-02-26T02:28:14;1.10;69.03
69084;SHT31;56185;48.526;9.044;2023-02-26T02:39:00;0.75;68.74
69084;SHT31;56185;48.526;9.044;2023-02-26T02:41:45;1.00;69.20
69084;SHT31;56185;48.526;9.044;2023-02-26T02:44:15;0.85;69.12
69084;SHT31;56185;48.526;9.044;2023-02-26T02:46:44;0.79;69.37
69084;SHT31;56185;48.526;9.044;2023-02-26T02:49:17;0.59;70.44
69084;SHT31;56185;48.526;9.044;2023-02-26T02:51:49;0.64;68.68
69084;SHT31;56185;48.526;9.044;2023-02-26T02:54:40;0.61;69.26
69084;SHT31;56185;48.526;9.044;2023-02-26T02:57:14;0.47;70.44
69084;SHT31;56185;48.526;9.044;2023-02-26T02:59:45;0.59;69.95
69084;SHT31;56185;48.526;9.044;2023-02-26T03:02:16;0.54;70.44
69084;SHT31;56185;48.526;9.044;2023-02-26T03:04:42;0.57;69.36
69084;SHT31;56185;48.526;9.044;2023-02-26T03:07:08;0.52;69.93
69084;SHT31;56185;48.526;9.044;2023-02-26T03:09:33;0.57;69.91
69084;SHT31;56185;48.526;9.044;2023-02-26T03:11:59;0.66;68.59
69084;SHT31;56185;48.526;9.044;2023-02-26T03:14:25;0.69;69.48
69084;SHT31;56185;48.526;9.044;2023-02-26T03:22:23;0.38;69.47
69084;SHT31;56185;48.526;9.044;2023-02-26T03:25:09;0.32;69.58
69084;SHT31;56185;48.526;9.044;2023-02-26T03:27:51;0.51;69.69
69084;SHT31;56185;48.526;9.044;2023-02-26T03:30:35;0.49;69.30
69084;SHT31;56185;48.526;9.044;2023-02-26T03:33:16;0.42;70.70
69084;SHT31;56185;48.526;9.044;2023-02-26T03:35:52;0.31;69.81
69084;SHT31;56185;48.526;9.044;2023-02-26T03:38:32;0.31;69.98
69084;SHT31;56185;48.526;9.044;2023-02-26T03:41:04;0.28;70.95
69084;SHT31;56185;48.526;9.044;2023-02-26T03:43:56;0.41;70.11
69084;SHT31;56185;48.526;9.044;2023-02-26T03:46:34;0.24;70.31
69084;SHT31;56185;48.526;9.044;2023-02-26T03:49:06;0.32;70.21
69084;SHT31;56185;48.526;9.044;2023-02-26T03:51:34;0.18;69.58
69084;SHT31;56185;48.526;9.044;2023-02-26T03:54:07;0.06;70.71
69084;SHT31;56185;48.526;9.044;2023-02-26T03:56:42;0.24;69.99
69084;SHT31;56185;48.526;9.044;2023-02-26T03:59:09;0.22;71.07
69084;SHT31;56185;48.526;9.044;2023-02-26T04:01:40;-0.02;70.95
69084;SHT31;56185;48.526;9.044;2023-02-26T04:04:15;0.10;70.62
69084;SHT31;56185;48.526;9.044;2023-02-26T04:06:42;-0.02;69.99
69084;SHT31;56185;48.526;9.044;2023-02-26T04:09:08;0.03;70.89
69084;SHT31;56185;48.526;9.044;2023-02-26T04:11:34;-0.09;71.60
69084;SHT31;56185;48.526;9.044;2023-02-26T04:14:00;-0.17;70.45
69084;SHT31;56185;48.526;9.044;2023-02-26T04:16:25;-0.31;72.43
69084;SHT31;56185;48.526;9.044;2023-02-26T04:18:51;-0.20;72.81
69084;SHT31;56185;48.526;9.044;2023-02-26T04:21:20;-0.35;73.73
69084;SHT31;56185;48.526;9.044;2023-02-26T04:23:45;-0.30;73.82
69084;SHT31;56185;48.526;9.044;2023-02-26T04:26:11;-0.32;72.87
69084;SHT31;56185;48.526;9.044;2023-02-26T04:28:36;-0.45;71.86
69084;SHT31;56185;48.526;9.044;2023-02-26T04:31:01;-0.54;72.66
69084;SHT31;56185;48.526;9.044;2023-02-26T04:35:53;-0.51;72.84
69084;SHT31;56185;48.526;9.044;2023-02-26T04:38:19;-0.52;73.32
69084;SHT31;56185;48.526;9.044;2023-02-26T04:40:44;-0.54;72.83
69084;SHT31;56185;48.526;9.044;2023-02-26T04:43:09;-0.64;72.72
69084;SHT31;56185;48.526;9.044;2023-02-26T04:45:34;-0.54;72.01
69084;SHT31;56185;48.526;9.044;2023-02-26T04:48:00;-0.50;71.88
69084;SHT31;56185;48.526;9.044;2023-02-26T04:50:25;-0.51;72.20
69084;SHT31;56185;48.526;9.044;2023-02-26T04:52:50;-0.54;73.49
69084;SHT31;56185;48.526;9.044;2023-02-26T04:55:16;-0.58;72.05
69084;SHT31;56185;48.526;9.044;2023-02-26T04:57:41;-0.58;72.48
69084;SHT31;56185;48.526;9.044;2023-02-26T05:00:07;-0.52;71.91
69084;SHT31;56185;48.526;9.044;2023-02-26T05:02:32;-0.57;72.18
69084;SHT31;56185;48.526;9.044;2023-02-26T05:04:58;-0.47;72.50
69084;SHT31;56185;48.526;9.044;2023-02-26T05:07:23;-0.47;72.00
69084;SHT31;56185;48.526;9.044;2023-02-26T05:09:48;-0.52;71.46
69084;SHT31;56185;48.526;9.044;2023-02-26T05:12:14;-0.54;71.81
69084;SHT31;56185;48.526;9.044;2023-02-26T05:14:39;-0.65;74.03
69084;SHT31;56185;48.526;9.044;2023-02-26T05:17:04;-0.66;73.40
69084;SHT31;56185;48.526;9.044;2023-02-26T05:19:29;-0.54;72.63
69084;SHT31;56185;48.526;9.044;2023-02-26T05:21:55;-0.64;72.39
69084;SHT31;56185;48.526;9.044;2023-02-26T05:24:20;-0.57;72.94
69084;SHT31;56185;48.526;9.044;2023-02-26T05:26:45;-0.40;73.09
69084;SHT31;56185;48.526;9.044;2023-02-26T05:29:10;-0.52;72.13
69084;SHT31;56185;48.526;9.044;2023-02-26T05:31:36;-0.51;72.55
69084;SHT31;56185;48.526;9.044;2023-02-26T05:34:01;-0.31;72.94
69084;SHT31;56185;48.526;9.044;2023-02-26T05:36:26;-0.28;71.94
69084;SHT31;56185;48.526;9.044;2023-02-26T05:38:51;-0.44;72.41
69084;SHT31;56185;48.526;9.044;2023-02-26T05:41:17;-0.50;72.45
69084;SHT31;56185;48.526;9.044;2023-02-26T05:43:42;-0.52;72.51
69084;SHT31;56185;48.526;9.044;2023-02-26T05:46:07;-0.35;73.01
69084;SHT31;56185;48.526;9.044;2023-02-26T05:48:33;-0.38;73.07
69084;SHT31;56185;48.526;9.044;2023-02-26T05:50:58;-0.58;73.63
69084;SHT31;56185;48.526;9.044;2023-02-26T05:53:24;-0.50;72.15
69084;SHT31;56185;48.526;9.044;2023-02-26T05:55:49;-0.41;72.77
69084;SHT31;56185;48.526;9.044;2023-02-26T05:58:14;-0.61;73.00
69084;SHT31;56185;48.526;9.044;2023-02-26T06:00:40;-0.58;72.80
69084;SHT31;56185;48.526;9.044;2023-02-26T06:03:05;-0.66;72.79
69084;SHT31;56185;48.526;9.044;2023-02-26T06:05:30;-0.48;73.29
69084;SHT31;56185;48.526;9.044;2023-02-26T06:07:55;-0.45;72.70
69084;SHT31;56185;48.526;9.044;2023-02-26T06:10:21;-0.51;73.05
69084;SHT31;56185;48.526;9.044;2023-02-26T06:12:46;-0.60;73.94
69084;SHT31;56185;48.526;9.044;2023-02-26T06:15:11;-0.57;72.79
69084;SHT31;56185;48.526;9.044;2023-02-26T06:17:38;-0.51;71.91
69084;SHT31;56185;48.526;9.044;2023-02-26T06:20:04;-0.62;73.29
69084;SHT31;56185;48.526;9.044;2023-02-26T06:22:30;-0.62;73.43
69084;SHT31;56185;48.526;9.044;2023-02-26T06:24:55;-0.71;73.25
69084;SHT31;56185;48.526;9.044;2023-02-26T06:27:21;-0.58;73.34
69084;SHT31;56185;48.526;9.044;2023-02-26T06:29:46;-0.65;73.31
69084;SHT31;56185;48.526;9.044;2023-02-26T06:32:11;-0.62;73.93
69084;SHT31;56185;48.526;9.044;2023-02-26T06:34:37;-0.42;72.94
69084;SHT31;56185;48.526;9.044;2023-02-26T06:37:02;-0.55;73.51
69084;SHT31;56185;48.526;9.044;2023-02-26T06:39:27;-0.52;72.58
69084;SHT31;56185;48.526;9.044;2023-02-26T06:41:53;-0.58;72.87
69084;SHT31;56185;48.526;9.044;2023-02-26T06:44:18;-0.57;72.45
69084;SHT31;56185;48.526;9.044;2023-02-26T06:46:43;-0.51;72.86
69084;SHT31;56185;48.526;9.044;2023-02-26T06:49:08;-0.57;73.47
69084;SHT31;56185;48.526;9.044;2023-02-26T06:51:35;-0.50;73.34
69084;SHT31;56185;48.526;9.044;2023-02-26T06:54:00;-0.38;72.78
69084;SHT31;56185;48.526;9.044;2023-02-26T06:56:25;-0.47;72.28
69084;SHT31;56185;48.526;9.044;2023-02-26T06:58:51;-0.50;72.58
69084;SHT31;56185;48.526;9.044;2023-02-26T07:01:16;-0.41;73.07
69084;SHT31;56185;48.526;9.044;2023-02-26T07:03:41;-0.45;72.88
69084;SHT31;56185;48.526;9.044;2023-02-26T07:06:08;-0.55;73.17
69084;SHT31;56185;48.526;9.044;2023-02-26T07:08:34;-0.45;72.83
69084;SHT31;56185;48.526;9.044;2023-02-26T07:11:00;-0.40;72.83
69084;SHT31;56185;48.526;9.044;2023-02-26T07:13:26;-0.52;72.32
69084;SHT31;56185;48.526;9.044;2023-02-26T07:15:51;-0.55;73.09
69084;SHT31;56185;48.526;9.044;2023-02-26T07:18:16;-0.66;73.51
69084;SHT31;56185;48.526;9.044;2023-02-26T07:20:42;-0.52;73.35
69084;SHT31;56185;48.526;9.044;2023-02-26T07:23:07;-0.55;73.52
69084;SHT31;56185;48.526;9.044;2023-02-26T07:25:33;-0.42;73.63
69084;SHT31;56185;48.526;9.044;2023-02-26T07:27:58;-0.35;73.29
69084;SHT31;56185;48.526;9.044;2023-02-26T07:30:23;-0.35;73.05
69084;SHT31;56185;48.526;9.044;2023-02-26T07:32:48;-0.55;73.67
69084;SHT31;56185;48.526;9.044;2023-02-26T07:35:14;-0.50;73.51
69084;SHT31;56185;48.526;9.044;2023-02-26T07:37:39;-0.35;73.43
69084;SHT31;56185;48.526;9.044;2023-02-26T07:40:05;-0.28;72.80
69084;SHT31;56185;48.526;9.044;2023-02-26T07:42:30;-0.25;73.51
69084;SHT31;56185;48.526;9.044;2023-02-26T07:44:55;-0.15;73.74
69084;SHT31;56185;48.526;9.044;2023-02-26T07:47:21;0.00;73.13
69084;SHT31;56185;48.526;9.044;2023-02-26T07:49:46;0.00;72.64
69084;SHT31;56185;48.526;9.044;2023-02-26T07:52:11;-0.07;72.27
69084;SHT31;56185;48.526;9.044;2023-02-26T07:54:37;-0.06;72.47
69084;SHT31;56185;48.526;9.044;2023-02-26T07:57:03;-0.14;72.75
69084;SHT31;56185;48.526;9.044;2023-02-26T07:59:28;-0.17;72.96
69084;SHT31;56185;48.526;9.044;2023-02-26T08:01:54;0.00;73.49
69084;SHT31;56185;48.526;9.044;2023-02-26T08:04:19;-0.55;72.86
69084;SHT31;56185;48.526;9.044;2023-02-26T08:06:44;-0.37;73.36
69084;SHT31;56185;48.526;9.044;2023-02-26T08:09:09;-0.34;73.98
69084;SHT31;56185;48.526;9.044;2023-02-26T08:11:35;-0.44;72.72
69084;SHT31;56185;48.526;9.044;2023-02-26T08:14:00;-0.17;73.98
69084;SHT31;56185;48.526;9.044;2023-02-26T08:16:25;-0.20;72.75
69084;SHT31;56185;48.526;9.044;2023-02-26T08:18:51;-0.06;73.27
69084;SHT31;56185;48.526;9.044;2023-02-26T08:21:16;-0.02;72.62
69084;SHT31;56185;48.526;9.044;2023-02-26T08:23:41;-0.07;71.67
69084;SHT31;56185;48.526;9.044;2023-02-26T08:26:08;0.04;72.78
69084;SHT31;56185;48.526;9.044;2023-02-26T08:28:34;-0.11;72.31
69084;SHT31;56185;48.526;9.044;2023-02-26T08:31:00;-0.14;73.86
69084;SHT31;56185;48.526;9.044;2023-02-26T08:33:26;-0.09;74.61
69084;SHT31;56185;48.526;9.044;2023-02-26T08:35:51;0.04;74.63
69084;SHT31;56185;48.526;9.044;2023-02-26T08:38:16;0.14;74.71
69084;SHT31;56185;48.526;9.044;2023-02-26T08:40:42;0.13;74.08
69084;SHT31;56185;48.526;9.044;2023-02-26T08:43:08;0.00;72.00
69084;SHT31;56185;48.526;9.044;2023-02-26T08:45:33;0.07;73.28
69084;SHT31;56185;48.526;9.044;2023-02-26T08:47:58;0.06;72.36
69084;SHT31;56185;48.526;9.044;2023-02-26T08:50:25;0.14;72.26
69084;SHT31;56185;48.526;9.044;2023-02-26T08:52:50;0.10;71.21
69084;SHT31;56185;48.526;9.044;2023-02-26T08:55:15;0.13;71.95
69084;SHT31;56185;48.526;9.044;2023-02-26T08:57:41;0.01;72.14
69084;SHT31;56185;48.526;9.044;2023-02-26T09:00:06;0.01;71.56
69084;SHT31;56185;48.526;9.044;2023-02-26T09:02:32;-0.03;71.91
69084;SHT31;56185;48.526;9.044;2023-02-26T09:04:57;-0.11;72.43
69084;SHT31;56185;48.526;9.044;2023-02-26T09:07:22;0.07;72.02
69084;SHT31;56185;48.526;9.044;2023-02-26T09:09:48;0.13;71.96
69084;SHT31;56185;48.526;9.044;2023-02-26T09:12:13;0.18;72.00
69084;SHT31;56185;48.526;9.044;2023-02-26T09:14:38;-0.02;71.12
69084;SHT31;56185;48.526;9.044;2023-02-26T09:17:03;0.10;71.27
69084;SHT31;56185;48.526;9.044;2023-02-26T09:19:29;0.24;72.30
69084;SHT31;56185;48.526;9.044;2023-02-26T09:21:54;0.21;70.53
69084;SHT31;56185;48.526;9.044;2023-02-26T09:24:19;0.22;72.15
69084;SHT31;56185;48.526;9.044;2023-02-26T09:26:44;0.35;70.76
69084;SHT31;56185;48.526;9.044;2023-02-26T09:29:10;0.44;69.93
69084;SHT31;56185;48.526;9.044;2023-02-26T09:31:35;0.49;70.62
69084;SHT31;56185;48.526;9.044;2023-02-26T09:34:00;0.35;69.81
69084;SHT31;56185;48.526;9.044;2023-02-26T09:36:25;0.38;70.57
69084;SHT31;56185;48.526;9.044;2023-02-26T09:38:51;0.27;69.49
69084;SHT31;56185;48.526;9.044;2023-02-26T09:41:22;0.08;71.33
69084;SHT31;56185;48.526;9.044;2023-02-26T09:46:59;0.03;72.39
69084;SHT31;56185;48.526;9.044;2023-02-26T09:51:52;0.22;73.13
69084;SHT31;56185;48.526;9.044;2023-02-26T09:54:24;0.15;72.33
69084;SHT31;56185;48.526;9.044;2023-02-26T09:56:52;0.25;72.61
69084;SHT31;56185;48.526;9.044;2023-02-26T09:59:19;0.28;71.21
69084;SHT31;56185;48.526;9.044;2023-02-26T10:01:55;0.18;72.48
69084;SHT31;56185;48.526;9.044;2023-02-26T10:10:44;0.06;72.84
69084;SHT31;56185;48.526;9.044;2023-02-26T10:12:39;0.06;72.04
69084;SHT31;56185;48.526;9.044;2023-02-26T10:15:18;0.24;73.05
69084;SHT31;56185;48.526;9.044;2023-02-26T10:18:05;0.22;71.97
69084;SHT31;56185;48.526;9.044;2023-02-26T10:23:41;1.10;70.61
69084;SHT31;56185;48.526;9.044;2023-02-26T10:28:58;1.57;69.71
69084;SHT31;56185;48.526;9.044;2023-02-26T10:31:54;2.02;68.76
69084;SHT31;56185;48.526;9.044;2023-02-26T10:42:31;2.05;67.74
69084;SHT31;56185;48.526;9.044;2023-02-26T10:50:19;1.62;69.00
69084;SHT31;56185;48.526;9.044;2023-02-26T10:52:46;1.50;69.25
69084;SHT31;56185;48.526;9.044;2023-02-26T10:55:24;1.64;69.20
69084;SHT31;56185;48.526;9.044;2023-02-26T10:58:10;1.69;69.72
69084;SHT31;56185;48.526;9.044;2023-02-26T11:00:36;1.51;68.47
69084;SHT31;56185;48.526;9.044;2023-02-26T11:03:04;1.69;69.37
69084;SHT31;56185;48.526;9.044;2023-02-26T11:05:31;1.47;68.12
69084;SHT31;56185;48.526;9.044;2023-02-26T11:08:03;1.36;69.54
69084;SHT31;56185;48.526;9.044;2023-02-26T11:10:44;1.46;69.64
69084;SHT31;56185;48.526;9.044;2023-02-26T11:13:11;1.44;69.29
69084;SHT31;56185;48.526;9.044;2023-02-26T11:15:36;1.30;69.14
69084;SHT31;56185;48.526;9.044;2023-02-26T11:18:02;1.33;69.67
69084;SHT31;56185;48.526;9.044;2023-02-26T11:20:39;1.37;70.08
69084;SHT31;56185;48.526;9.044;2023-02-26T11:23:11;1.38;70.40
69084;SHT31;56185;48.526;9.044;2023-02-26T11:25:37;1.10;69.56
69084;SHT31;56185;48.526;9.044;2023-02-26T11:28:36;1.17;69.86
69084;SHT31;56185;48.526;9.044;2023-02-26T11:31:06;1.27;70.65
69084;SHT31;56185;48.526;9.044;2023-02-26T11:33:37;1.15;69.16
69084;SHT31;56185;48.526;9.044;2023-02-26T11:36:09;1.38;68.62
69084;SHT31;56185;48.526;9.044;2023-02-26T11:38:36;1.47;67.83
69084;SHT31;56185;48.526;9.044;2023-02-26T11:41:02;1.48;67.00
69084;SHT31;56185;48.526;9.044;2023-02-26T11:43:39;1.44;70.08
69084;SHT31;56185;48.526;9.044;2023-02-26T11:46:06;1.51;69.24
69084;SHT31;56185;48.526;9.044;2023-02-26T11:51:08;1.75;66.74
69084;SHT31;56185;48.526;9.044;2023-02-26T11:53:41;1.83;67.19
69084;SHT31;56185;48.526;9.044;2023-02-26T11:56:13;1.51;66.20
69084;SHT31;56185;48.526;9.044;2023-02-26T11:58:40;1.71;66.76
69084;SHT31;56185;48.526;9.044;2023-02-26T12:01:09;1.75;68.37
69084;SHT31;56185;48.526;9.044;2023-02-26T12:03:38;1.74;67.79
69084;SHT31;56185;48.526;9.044;2023-02-26T12:06:03;1.76;67.99
69084;SHT31;56185;48.526;9.044;2023-02-26T12:14:14;1.83;66.14
69084;SHT31;56185;48.526;9.044;2023-02-26T12:17:01;1.68;67.29
69084;SHT31;56185;48.526;9.044;2023-02-26T12:24:58;1.69;66.40
69084;SHT31;56185;48.526;9.044;2023-02-26T12:35:46;1.59;67.28
69084;SHT31;56185;48.526;9.044;2023-02-26T12:38:26;1.75;67.50
69084;SHT31;56185;48.526;9.044;2023-02-26T12:44:06;1.95;69.43
69084;SHT31;56185;48.526;9.044;2023-02-26T12:52:18;1.94;65.75
69084;SHT31;56185;48.526;9.044;2023-02-26T12:55:18;2.07;65.06
69084;SHT31;56185;48.526;9.044;2023-02-26T13:09:13;2.01;63.75
69084;SHT31;56185;48.526;9.044;2023-02-26T13:14:24;2.13;64.99
69084;SHT31;56185;48.526;9.044;2023-02-26T13:17:02;2.10;64.21
69084;SHT31;56185;48.526;9.044;2023-02-26T13:19:55;2.16;63.87
69084;SHT31;56185;48.526;9.044;2023-02-26T13:22:37;2.10;64.21
69084;SHT31;56185;48.526;9.044;2023-02-26T13:25:28;2.07;64.04
69084;SHT31;56185;48.526;9.044;2023-02-26T13:27:56;2.01;64.57
69084;SHT31;56185;48.526;9.044;2023-02-26T13:30:27;1.83;65.54
69084;SHT31;56185;48.526;9.044;2023-02-26T13:32:58;1.85;67.28
69084;SHT31;56185;48.526;9.044;2023-02-26T13:35:30;1.74;68.11
69084;SHT31;56185;48.526;9.044;2023-02-26T13:37:59;1.67;68.15
69084;SHT31;56185;48.526;9.044;2023-02-26T13:40:32;1.75;67.71
69084;SHT31;56185;48.526;9.044;2023-02-26T13:51:26;2.29;69.06
69084;SHT31;56185;48.526;9.044;2023-02-26T13:53:58;2.43;67.44
69084;SHT31;56185;48.526;9.044;2023-02-26T14:01:56;2.48;68.17
69084;SHT31;56185;48.526;9.044;2023-02-26T14:04:25;2.58;67.81
69084;SHT31;56185;48.526;9.044;2023-02-26T14:06:58;2.43;66.61
69084;SHT31;56185;48.526;9.044;2023-02-26T14:12:02;2.44;66.72
69084;SHT31;56185;48.526;9.044;2023-02-26T14:17:50;2.32;67.80
69084;SHT31;56185;48.526;9.044;2023-02-26T14:20:23;2.36;66.24
69084;SHT31;56185;48.526;9.044;2023-02-26T14:23:11;2.36;67.40
69084;SHT31;56185;48.526;9.044;2023-02-26T14:25:38;2.30;66.34
69084;SHT31;56185;48.526;9.044;2023-02-26T14:34:24;2.37;65.75
69084;SHT31;56185;48.526;9.044;2023-02-26T14:36:35;2.44;64.08
69084;SHT31;56185;48.526;9.044;2023-02-26T14:39:04;2.44;64.01
69084;SHT31;56185;48.526;9.044;2023-02-26T14:41:32;2.26;62.16
69084;SHT31;56185;48.526;9.044;2023-02-26T14:44:06;2.02;61.43
69084;SHT31;56185;48.526;9.044;2023-02-26T14:46:35;2.25;62.76
69084;SHT31;56185;48.526;9.044;2023-02-26T14:49:00;2.37;64.30
69084;SHT31;56185;48.526;9.044;2023-02-26T14:51:42;2.36;62.09
69084;SHT31;56185;48.526;9.044;2023-02-26T14:57:39;2.38;61.42
69084;SHT31;56185;48.526;9.044;2023-02-26T15:13:02;2.12;60.54
69084;SHT31;56185;48.526;9.044;2023-02-26T15:21:27;2.25;59.99
69084;SHT31;56185;48.526;9.044;2023-02-26T15:23:56;2.34;59.34
69084;SHT31;56185;48.526;9.044;2023-02-26T15:28:54;2.65;58.75
69084;SHT31;56185;48.526;9.044;2023-02-26T15:31:30;2.56;57.53
69084;SHT31;56185;48.526;9.044;2023-02-26T15:33:57;2.51;57.65
69084;SHT31;56185;48.526;9.044;2023-02-26T15:36:22;2.60;58.32
69084;SHT31;56185;48.526;9.044;2023-02-26T15:38:52;2.65;57.66
69084;SHT31;56185;48.526;9.044;2023-02-26T15:41:18;2.53;57.72
69084;SHT31;56185;48.526;9.044;2023-02-26T15:43:50;2.54;58.67
69084;SHT31;56185;48.526;9.044;2023-02-26T15:46:16;2.61;58.52
69084;SHT31;56185;48.526;9.044;2023-02-26T15:48:43;2.64;58.47
69084;SHT31;56185;48.526;9.044;2023-02-26T15:51:12;2.60;58.17
69084;SHT31;56185;48.526;9.044;2023-02-26T15:53:48;2.36;58.68
69084;SHT31;56185;48.526;9.044;2023-02-26T15:56:30;2.53;61.54
69084;SHT31;56185;48.526;9.044;2023-02-26T15:59:12;2.38;61.44
69084;SHT31;56185;48.526;9.044;2023-02-26T16:01:39;2.22;61.36
69084;SHT31;56185;48.526;9.044;2023-02-26T16:04:11;2.13;61.69
69084;SHT31;56185;48.526;9.044;2023-02-26T16:06:40;2.12;60.03
69084;SHT31;56185;48.526;9.044;2023-02-26T16:09:07;2.03;59.95
69084;SHT31;56185;48.526;9.044;2023-02-26T16:11:36;1.99;59.77
69084;SHT31;56185;48.526;9.044;2023-02-26T16:14:03;2.03;59.39
69084;SHT31;56185;48.526;9.044;2023-02-26T16:16:40;1.99;58.88
69084;SHT31;56185;48.526;9.044;2023-02-26T16:19:07;2.09;59.41
69084;SHT31;56185;48.526;9.044;2023-02-26T16:21:35;2.22;60.02
69084;SHT31;56185;48.526;9.044;2023-02-26T16:24:04;2.13;59.09
69084;SHT31;56185;48.526;9.044;2023-02-26T16:26:40;2.17;59.87
69084;SHT31;56185;48.526;9.044;2023-02-26T16:29:18;2.23;59.82
69084;SHT31;56185;48.526;9.044;2023-02-26T16:31:51;2.23;60.08
69084;SHT31;56185;48.526;9.044;2023-02-26T16:34:31;2.09;59.93
69084;SHT31;56185;48.526;9.044;2023-02-26T16:36:57;1.92;59.32
69084;SHT31;56185;48.526;9.044;2023-02-26T16:39:29;1.88;60.63
69084;SHT31;56185;48.526;9.044;2023-02-26T16:42:07;1.85;59.41
69084;SHT31;56185;48.526;9.044;2023-02-26T17:46:18;1.55;58.16
69084;SHT31;56185;48.526;9.044;2023-02-26T17:48:43;1.54;57.80
69084;SHT31;56185;48.526;9.044;2023-02-26T17:51:09;1.62;58.42
69084;SHT31;56185;48.526;9.044;2023-02-26T17:53:34;1.57;58.83
69084;SHT31;56185;48.526;9.044;2023-02-26T17:55:59;1.57;58.77
69084;SHT31;56185;48.526;9.044;2023-02-26T17:58:30;1.58;59.09
69084;SHT31;56185;48.526;9.044;2023-02-26T18:00:56;1.48;58.03
69084;SHT31;56185;48.526;9.044;2023-02-26T18:03:22;1.52;58.55
69084;SHT31;56185;48.526;9.044;2023-02-26T18:05:48;1.44;57.62
69084;SHT31;56185;48.526;9.044;2023-02-26T18:08:31;1.54;57.46
69084;SHT31;56185;48.526;9.044;2023-02-26T18:10:58;1.54;58.65
69084;SHT31;56185;48.526;9.044;2023-02-26T18:13:24;1.51;57.23
69084;SHT31;56185;48.526;9.044;2023-02-26T18:15:50;1.54;57.34
69084;SHT31;56185;48.526;9.044;2023-02-26T18:18:16;1.52;58.77
69084;SHT31;56185;48.526;9.044;2023-02-26T18:20:42;1.57;58.01
69084;SHT31;56185;48.526;9.044;2023-02-26T18:23:08;1.40;58.28
69084;SHT31;56185;48.526;9.044;2023-02-26T18:25:34;1.41;57.16
69084;SHT31;56185;48.526;9.044;2023-02-26T18:28:00;1.37;57.02
69084;SHT31;56185;48.526;9.044;2023-02-26T18:30:31;1.44;56.89
69084;SHT31;56185;48.526;9.044;2023-02-26T18:32:57;1.50;57.14
69084;SHT31;56185;48.526;9.044;2023-02-26T18:35:24;1.46;57.29
69084;SHT31;56185;48.526;9.044;2023-02-26T18:37:50;1.50;58.15
69084;SHT31;56185;48.526;9.044;2023-02-26T18:40:17;1.36;56.56
69084;SHT31;56185;48.526;9.044;2023-02-26T18:42:43;1.40;57.17
69084;SHT31;56185;48.526;9.044;2023-02-26T18:45:09;1.36;57.49
69084;SHT31;56185;48.526;9.044;2023-02-26T18:47:36;1.27;57.63
69084;SHT31;56185;48.526;9.044;2023-02-26T18:50:02;1.28;57.57
69084;SHT31;56185;48.526;9.044;2023-02-26T18:52:27;1.37;58.19
69084;SHT31;56185;48.526;9.044;2023-02-26T18:54:52;1.36;57.37
69084;SHT31;56185;48.526;9.044;2023-02-26T18:57:18;1.34;58.11
69084;SHT31;56185;48.526;9.044;2023-02-26T18:59:43;1.26;57.50
69084;SHT31;56185;48.526;9.044;2023-02-26T19:02:10;1.26;57.70
69084;SHT31;56185;48.526;9.044;2023-02-26T19:04:36;1.23;57.85
69084;SHT31;56185;48.526;9.044;2023-02-26T19:07:01;1.30;57.63
69084;SHT31;56185;48.526;9.044;2023-02-26T19:09:26;1.28;57.51
69084;SHT31;56185;48.526;9.044;2023-02-26T19:11:52;1.15;57.35
69084;SHT31;56185;48.526;9.044;2023-02-26T19:14:17;1.16;57.31
69084;SHT31;56185;48.526;9.044;2023-02-26T19:16:42;1.17;57.65
69084;SHT31;56185;48.526;9.044;2023-02-26T19:19:08;1.17;58.32
69084;SHT31;56185;48.526;9.044;2023-02-26T19:21:34;1.12;58.41
69084;SHT31;56185;48.526;9.044;2023-02-26T19:24:00;1.13;58.00
69084;SHT31;56185;48.526;9.044;2023-02-26T19:26:25;1.03;57.75
69084;SHT31;56185;48.526;9.044;2023-02-26T19:28:51;1.04;58.87
69084;SHT31;56185;48.526;9.044;2023-02-26T19:31:16;1.03;58.19
69084;SHT31;56185;48.526;9.044;2023-02-26T19:33:41;1.01;58.19
69084;SHT31;56185;48.526;9.044;2023-02-26T19:36:07;0.97;58.59
69084;SHT31;56185;48.526;9.044;2023-02-26T19:38:32;1.09;58.72
69084;SHT31;56185;48.526;9.044;2023-02-26T19:40:57;0.95;59.87
69084;SHT31;56185;48.526;9.044;2023-02-26T19:43:23;0.99;58.66
69084;SHT31;56185;48.526;9.044;2023-02-26T19:45:48;0.95;58.93